createdAt,value
2018-09-17T00:00:03.574Z,13.29
2018-09-17T00:01:03.561Z,13.30
2018-09-17T00:02:03.558Z,13.33
2018-09-17T00:03:03.525Z,13.32
2018-09-17T00:04:03.515Z,13.33
2018-09-17T00:05:03.493Z,13.36
2018-09-17T00:06:03.477Z,13.29
2018-09-17T00:07:03.477Z,13.32
2018-09-17T00:08:03.445Z,13.30
2018-09-17T00:09:03.445Z,13.29
2018-09-17T00:10:03.412Z,13.22
2018-09-17T00:11:03.397Z,13.20
2018-09-17T00:12:03.378Z,13.17
2018-09-17T00:13:03.362Z,13.20
2018-09-17T00:14:03.362Z,13.17
2018-09-17T00:15:03.327Z,13.22
2018-09-17T00:16:03.309Z,13.17
2018-09-17T00:17:03.295Z,13.14
2018-09-17T00:18:03.277Z,13.20
2018-09-17T00:19:03.279Z,13.17
2018-09-17T00:20:03.260Z,13.17
2018-09-17T00:21:03.231Z,13.15
2018-09-17T00:22:03.212Z,13.28
2018-09-17T00:23:03.193Z,13.12
2018-09-17T00:24:03.194Z,13.19
2018-09-17T00:25:03.165Z,13.33
2018-09-17T00:26:03.150Z,13.42
2018-09-17T00:27:03.129Z,13.48
2018-09-17T00:28:03.109Z,13.39
2018-09-17T00:29:03.093Z,13.36
2018-09-17T00:30:03.093Z,13.38
2018-09-17T00:31:03.077Z,13.38
2018-09-17T00:32:03.045Z,13.38
2018-09-17T00:33:03.029Z,13.33
2018-09-17T00:34:03.008Z,13.29
2018-09-17T00:35:03.016Z,13.28
2018-09-17T00:36:02.997Z,13.22
2018-09-17T00:37:02.968Z,13.20
2018-09-17T00:38:02.946Z,13.15
2018-09-17T00:39:02.927Z,13.14
2018-09-17T00:40:02.933Z,13.10
2018-09-17T00:41:02.912Z,13.14
2018-09-17T00:42:02.878Z,13.11
2018-09-17T00:43:02.909Z,13.28
2018-09-17T00:44:02.848Z,13.12
2018-09-17T00:45:02.831Z,13.11
2018-09-17T00:46:02.822Z,13.11
2018-09-17T00:47:02.813Z,13.11
2018-09-17T00:48:02.774Z,13.10
2018-09-17T00:49:02.761Z,13.11
2018-09-17T00:50:02.743Z,13.07
2018-09-17T00:51:02.729Z,13.11
2018-09-17T00:52:02.727Z,13.12
2018-09-17T00:53:02.690Z,13.08
2018-09-17T00:54:02.679Z,13.11
2018-09-17T00:55:02.676Z,13.11
2018-09-17T00:56:02.646Z,13.00
2018-09-17T00:57:02.644Z,13.03
2018-09-17T00:58:02.646Z,12.96
2018-09-17T00:59:02.590Z,12.90
2018-09-17T01:00:02.577Z,12.89
2018-09-17T01:01:02.558Z,13.00
2018-09-17T01:02:02.542Z,12.96
2018-09-17T01:03:02.528Z,12.93
2018-09-17T01:04:02.522Z,12.92
2018-09-17T01:05:02.509Z,13.00
2018-09-17T01:06:02.475Z,12.96
2018-09-17T01:07:02.461Z,12.90
2018-09-17T01:08:02.442Z,12.87
2018-09-17T01:09:02.442Z,12.87
2018-09-17T01:10:02.423Z,12.79
2018-09-17T01:11:02.389Z,12.82
2018-09-17T01:12:02.376Z,12.79
2018-09-17T01:13:02.355Z,12.79
2018-09-17T01:14:02.340Z,12.74
2018-09-17T01:15:02.352Z,12.82
2018-09-17T01:16:02.305Z,12.79
2018-09-17T01:17:02.293Z,12.78
2018-09-17T01:18:02.273Z,12.85
2018-09-17T01:19:02.256Z,12.85
2018-09-17T01:20:02.238Z,12.83
2018-09-17T01:21:02.240Z,12.79
2018-09-17T01:22:02.207Z,12.82
2018-09-17T01:23:02.190Z,12.78
2018-09-17T01:24:02.171Z,12.75
2018-09-17T01:25:02.152Z,12.78
2018-09-17T01:26:02.149Z,12.77
2018-09-17T01:27:02.120Z,12.74
2018-09-17T01:28:02.104Z,12.64
2018-09-17T01:29:02.088Z,12.65
2018-09-17T01:30:02.075Z,12.68
2018-09-17T01:31:02.069Z,12.56
2018-09-17T01:32:02.037Z,12.56
2018-09-17T01:33:02.024Z,12.56
2018-09-17T01:34:02.005Z,12.50
2018-09-17T01:35:02.011Z,12.53
2018-09-17T01:36:01.989Z,12.47
2018-09-17T01:37:01.966Z,12.52
2018-09-17T01:38:01.946Z,12.56
2018-09-17T01:39:01.920Z,12.45
2018-09-17T01:40:01.902Z,12.46
2018-09-17T01:41:01.889Z,12.45
2018-09-17T01:42:01.880Z,12.37
2018-09-17T01:43:01.849Z,12.38
2018-09-17T01:44:01.836Z,12.39
2018-09-17T01:45:01.825Z,12.39
2018-09-17T01:46:01.800Z,12.39
2018-09-17T01:47:01.800Z,12.31
2018-09-17T01:48:01.765Z,12.37
2018-09-17T01:49:01.752Z,12.37
2018-09-17T01:50:01.736Z,12.41
2018-09-17T01:51:01.716Z,12.42
2018-09-17T01:52:01.702Z,12.50
2018-09-17T01:53:01.697Z,12.54
2018-09-17T01:54:01.673Z,12.70
2018-09-17T01:55:01.644Z,12.83
2018-09-17T01:56:01.633Z,12.86
2018-09-17T01:57:01.610Z,12.86
2018-09-17T01:58:01.616Z,12.85
2018-09-17T01:59:01.584Z,12.89
2018-09-17T02:00:01.562Z,12.74
2018-09-17T02:01:01.546Z,12.79
2018-09-17T02:02:01.546Z,12.75
2018-09-17T02:03:01.526Z,12.92
2018-09-17T02:04:01.499Z,12.93
2018-09-17T02:05:01.483Z,12.92
2018-09-17T02:06:01.458Z,12.89
2018-09-17T02:07:01.446Z,12.86
2018-09-17T02:08:01.496Z,12.87
2018-09-17T02:09:01.415Z,12.96
2018-09-17T02:10:01.409Z,12.90
2018-09-17T02:11:01.392Z,12.92
2018-09-17T02:12:01.360Z,12.97
2018-09-17T02:13:01.338Z,13.04
2018-09-17T02:14:01.342Z,13.04
2018-09-17T02:15:01.303Z,13.03
2018-09-17T02:16:01.288Z,13.03
2018-09-17T02:17:01.272Z,13.01
2018-09-17T02:18:01.258Z,12.95
2018-09-17T02:19:01.252Z,12.95
2018-09-17T02:20:01.217Z,12.92
2018-09-17T02:21:01.202Z,12.92
2018-09-17T02:22:01.182Z,12.90
2018-09-17T02:23:01.174Z,12.90
2018-09-17T02:24:01.153Z,12.92
2018-09-17T02:25:22.144Z,12.92
2018-09-17T02:26:01.116Z,12.95
2018-09-17T02:27:01.115Z,12.92
2018-09-17T02:28:01.081Z,13.01
2018-09-17T02:29:01.078Z,13.08
2018-09-17T02:30:01.043Z,13.05
2018-09-17T02:31:01.038Z,13.08
2018-09-17T02:32:01.027Z,13.10
2018-09-17T02:33:00.992Z,13.05
2018-09-17T02:34:00.974Z,13.10
2018-09-17T02:35:00.960Z,12.87
2018-09-17T02:36:00.944Z,13.05
2018-09-17T02:37:00.944Z,13.04
2018-09-17T02:38:00.912Z,13.03
2018-09-17T02:39:00.889Z,13.07
2018-09-17T02:40:00.886Z,12.97
2018-09-17T02:41:00.856Z,13.04
2018-09-17T02:42:00.833Z,13.12
2018-09-17T02:43:00.833Z,13.08
2018-09-17T02:44:00.802Z,13.01
2018-09-17T02:45:00.820Z,13.00
2018-09-17T02:46:00.767Z,12.97
2018-09-17T02:47:00.749Z,13.03
2018-09-17T02:48:00.732Z,13.00
2018-09-17T02:49:00.716Z,12.96
2018-09-17T02:50:00.712Z,13.01
2018-09-17T02:51:00.698Z,12.97
2018-09-17T02:52:00.660Z,12.96
2018-09-17T02:53:00.643Z,12.96
2018-09-17T02:54:00.631Z,12.96
2018-09-17T02:55:00.612Z,12.92
2018-09-17T02:56:00.605Z,12.93
2018-09-17T02:57:00.580Z,12.86
2018-09-17T02:58:00.559Z,12.77
2018-09-17T02:59:00.541Z,12.79
2018-09-17T03:00:00.528Z,12.72
2018-09-17T03:01:00.536Z,12.71
2018-09-17T03:02:00.493Z,12.67
2018-09-17T03:03:00.474Z,12.57
2018-09-17T03:04:00.460Z,12.62
2018-09-17T03:05:00.441Z,12.52
2018-09-17T03:06:00.422Z,12.53
2018-09-17T03:07:00.421Z,12.39
2018-09-17T03:08:00.387Z,12.38
2018-09-17T03:09:00.371Z,12.38
2018-09-17T03:10:00.354Z,12.29
2018-09-17T03:11:00.338Z,12.24
2018-09-17T03:12:00.329Z,12.19
2018-09-17T03:13:00.304Z,12.13
2018-09-17T03:14:00.284Z,12.14
2018-09-17T03:15:00.264Z,12.10
2018-09-17T03:16:00.252Z,12.10
2018-09-17T03:17:00.248Z,12.07
2018-09-17T03:18:00.230Z,12.07
2018-09-17T03:19:00.203Z,12.04
2018-09-17T03:20:00.182Z,12.04
2018-09-17T03:21:00.163Z,12.02
2018-09-17T03:22:00.181Z,11.86
2018-09-17T03:23:00.143Z,11.86
2018-09-17T03:24:00.112Z,11.86
2018-09-17T03:25:00.096Z,11.88
2018-09-17T03:26:00.081Z,11.96
2018-09-17T03:27:00.061Z,11.88
2018-09-17T03:28:00.057Z,11.98
2018-09-17T03:29:00.028Z,11.98
2018-09-17T03:30:00.010Z,12.04
2018-09-17T03:30:59.991Z,12.21
2018-09-17T03:31:59.974Z,12.19
2018-09-17T03:32:59.990Z,12.27
2018-09-17T03:33:59.935Z,12.38
2018-09-17T03:34:59.922Z,12.56
2018-09-17T03:35:59.908Z,12.67
2018-09-17T03:36:59.890Z,12.56
2018-09-17T03:37:59.873Z,12.65
2018-09-17T03:38:59.871Z,12.67
2018-09-17T03:39:59.836Z,12.75
2018-09-17T03:40:59.822Z,12.82
2018-09-17T03:41:59.804Z,12.86
2018-09-17T03:42:59.799Z,12.90
2018-09-17T03:43:59.784Z,12.90
2018-09-17T03:44:59.749Z,12.97
2018-09-17T03:45:59.734Z,12.93
2018-09-17T03:46:59.713Z,12.95
2018-09-17T03:47:59.697Z,12.92
2018-09-17T03:48:59.693Z,12.83
2018-09-17T03:49:59.677Z,12.78
2018-09-17T03:50:59.644Z,12.70
2018-09-17T03:51:59.626Z,12.56
2018-09-17T03:52:59.610Z,12.54
2018-09-17T03:53:59.597Z,12.45
2018-09-17T03:54:59.588Z,12.39
2018-09-17T03:55:59.556Z,12.31
2018-09-17T03:56:59.543Z,12.28
2018-09-17T03:57:59.521Z,12.34
2018-09-17T03:58:59.503Z,12.24
2018-09-17T03:59:59.503Z,12.20
2018-09-17T04:00:59.471Z,12.21
2018-09-17T04:01:59.449Z,12.10
2018-09-17T04:02:59.435Z,12.14
2018-09-17T04:03:59.417Z,12.14
2018-09-17T04:04:59.405Z,12.09
2018-09-17T04:05:59.399Z,12.09
2018-09-17T04:06:59.364Z,12.07
2018-09-17T04:07:59.347Z,12.04
2018-09-17T04:08:59.328Z,12.10
2018-09-17T04:09:59.315Z,11.99
2018-09-17T04:10:59.296Z,11.96
2018-09-17T04:11:59.294Z,11.95
2018-09-17T04:12:59.258Z,11.86
2018-09-17T04:13:59.242Z,11.98
2018-09-17T04:14:59.240Z,11.98
2018-09-17T04:15:59.209Z,12.10
2018-09-17T04:16:59.191Z,12.19
2018-09-17T04:17:59.173Z,12.24
2018-09-17T04:18:59.158Z,12.35
2018-09-17T04:19:59.135Z,12.38
2018-09-17T04:20:59.138Z,12.53
2018-09-17T04:21:59.119Z,12.53
2018-09-17T04:22:59.090Z,12.65
2018-09-17T04:23:59.071Z,12.70
2018-09-17T04:24:59.054Z,12.70
2018-09-17T04:25:59.035Z,12.74
2018-09-17T04:26:59.033Z,12.79
2018-09-17T04:27:59.016Z,12.82
2018-09-17T04:28:58.984Z,12.83
2018-09-17T04:29:58.981Z,12.87
2018-09-17T04:30:58.978Z,12.90
2018-09-17T04:31:58.931Z,12.89
2018-09-17T04:32:58.943Z,12.90
2018-09-17T04:33:58.893Z,12.90
2018-09-17T04:34:58.893Z,12.86
2018-09-17T04:35:58.861Z,12.95
2018-09-17T04:36:58.841Z,12.97
2018-09-17T04:37:58.826Z,12.90
2018-09-17T04:38:58.812Z,13.03
2018-09-17T04:39:58.806Z,13.10
2018-09-17T04:40:58.774Z,13.17
2018-09-17T04:41:58.758Z,13.07
2018-09-17T04:42:58.743Z,13.12
2018-09-17T04:43:58.725Z,13.20
2018-09-17T04:44:58.726Z,13.25
2018-09-17T04:45:58.703Z,13.26
2018-09-17T04:46:58.687Z,13.32
2018-09-17T04:47:58.673Z,13.36
2018-09-17T04:48:58.636Z,13.38
2018-09-17T04:49:58.632Z,13.36
2018-09-17T04:50:58.603Z,13.51
2018-09-17T04:51:58.587Z,13.42
2018-09-17T04:52:58.565Z,13.36
2018-09-17T04:53:58.565Z,13.38
2018-09-17T04:54:58.556Z,13.32
2018-09-17T04:55:58.884Z,13.29
2018-09-17T04:56:58.497Z,13.30
2018-09-17T04:57:58.480Z,13.29
2018-09-17T04:58:58.464Z,13.22
2018-09-17T04:59:58.447Z,13.14
2018-09-17T05:00:58.445Z,13.14
2018-09-17T05:01:58.413Z,13.19
2018-09-17T05:02:58.391Z,13.17
2018-09-17T05:03:58.372Z,13.08
2018-09-17T05:04:58.360Z,13.20
2018-09-17T05:05:58.344Z,13.29
2018-09-17T05:06:58.340Z,13.30
2018-09-17T05:07:58.310Z,13.32
2018-09-17T05:08:58.288Z,13.30
2018-09-17T05:09:58.273Z,13.33
2018-09-17T05:10:58.254Z,13.36
2018-09-17T05:11:58.257Z,13.38
2018-09-17T05:12:58.303Z,13.29
2018-09-17T05:13:58.205Z,13.29
2018-09-17T05:14:58.192Z,13.30
2018-09-17T05:15:58.187Z,13.30
2018-09-17T05:16:58.157Z,13.28
2018-09-17T05:17:58.153Z,13.28
2018-09-17T05:18:58.123Z,13.25
2018-09-17T05:19:58.200Z,13.22
2018-09-17T05:20:58.084Z,13.32
2018-09-17T05:21:58.092Z,13.19
2018-09-17T05:22:58.049Z,13.25
2018-09-17T05:23:58.036Z,13.20
2018-09-17T05:24:58.030Z,13.19
2018-09-17T05:25:57.998Z,13.23
2018-09-17T05:26:57.998Z,13.15
2018-09-17T05:27:57.982Z,13.30
2018-09-17T05:28:57.963Z,13.30
2018-09-17T05:29:57.931Z,13.26
2018-09-17T05:30:57.915Z,13.33
2018-09-17T05:31:57.898Z,13.33
2018-09-17T05:32:57.896Z,13.38
2018-09-17T05:33:57.937Z,13.38
2018-09-17T05:34:57.899Z,13.41
2018-09-17T05:35:57.829Z,13.44
2018-09-17T05:36:57.813Z,13.39
2018-09-17T05:37:57.797Z,13.42
2018-09-17T05:38:57.775Z,13.46
2018-09-17T05:39:57.784Z,13.62
2018-09-17T05:40:57.746Z,13.64
2018-09-17T05:41:57.727Z,13.70
2018-09-17T05:42:57.711Z,13.75
2018-09-17T05:43:57.695Z,13.73
2018-09-17T05:44:57.692Z,13.70
2018-09-17T05:45:57.660Z,13.66
2018-09-17T05:46:57.644Z,13.79
2018-09-17T05:47:57.635Z,13.63
2018-09-17T05:48:57.610Z,13.70
2018-09-17T05:49:57.606Z,13.64
2018-09-17T05:50:57.590Z,13.78
2018-09-17T05:51:57.574Z,13.73
2018-09-17T05:52:57.542Z,13.60
2018-09-17T05:53:57.551Z,13.81
2018-09-17T05:54:57.517Z,13.75
2018-09-17T05:55:57.507Z,13.63
2018-09-17T05:56:57.492Z,13.75
2018-09-17T05:57:57.454Z,13.73
2018-09-17T05:58:57.440Z,13.79
2018-09-17T05:59:57.421Z,13.71
2018-09-17T06:00:57.419Z,13.79
2018-09-17T06:01:57.410Z,13.78
2018-09-17T06:02:57.372Z,13.92
2018-09-17T06:03:57.354Z,13.88
2018-09-17T06:04:57.338Z,13.87
2018-09-17T06:05:57.340Z,13.97
2018-09-17T06:06:57.345Z,13.92
2018-09-17T06:07:57.293Z,13.89
2018-09-17T06:08:57.274Z,14.04
2018-09-17T06:09:57.255Z,13.99
2018-09-17T06:10:57.265Z,14.04
2018-09-17T06:11:57.311Z,14.07
2018-09-17T06:12:57.206Z,14.04
2018-09-17T06:13:57.194Z,14.12
2018-09-17T06:14:57.181Z,14.12
2018-09-17T06:15:57.149Z,14.12
2018-09-17T06:16:57.149Z,14.17
2018-09-17T06:17:57.133Z,14.12
2018-09-17T06:18:57.099Z,14.22
2018-09-17T06:19:57.088Z,14.18
2018-09-17T06:20:57.069Z,14.24
2018-09-17T06:21:57.048Z,14.32
2018-09-17T06:22:57.058Z,14.20
2018-09-17T06:23:57.028Z,14.21
2018-09-17T06:24:56.997Z,14.22
2018-09-17T06:25:56.981Z,14.20
2018-09-17T06:26:56.965Z,14.32
2018-09-17T06:27:56.975Z,14.29
2018-09-17T06:28:56.930Z,14.39
2018-09-17T06:29:56.916Z,14.43
2018-09-17T06:30:56.900Z,14.35
2018-09-17T06:31:56.884Z,14.42
2018-09-17T06:32:56.871Z,14.45
2018-09-17T06:33:56.861Z,14.51
2018-09-17T06:34:56.833Z,14.51
2018-09-17T06:35:56.818Z,14.51
2018-09-17T06:37:56.783Z,14.51
2018-09-17T06:38:56.783Z,14.54
2018-09-17T06:39:56.756Z,14.65
2018-09-17T06:40:56.737Z,14.64
2018-09-17T06:41:56.718Z,14.65
2018-09-17T06:42:56.710Z,14.77
2018-09-17T06:43:56.702Z,14.77
2018-09-17T06:44:56.765Z,14.86
2018-09-17T06:45:56.652Z,14.88
2018-09-17T06:46:56.641Z,14.86
2018-09-17T06:47:56.622Z,14.92
2018-09-17T06:48:56.604Z,14.98
2018-09-17T06:49:56.603Z,14.98
2018-09-17T06:50:56.571Z,14.92
2018-09-17T06:51:56.552Z,14.91
2018-09-17T06:52:56.536Z,15.03
2018-09-17T06:54:17.533Z,15.10
2018-09-17T06:54:56.507Z,15.17
2018-09-17T06:55:56.492Z,15.11
2018-09-17T06:56:56.473Z,15.11
2018-09-17T06:57:56.457Z,15.16
2018-09-17T06:58:56.444Z,15.20
2018-09-17T06:59:56.441Z,15.36
2018-09-17T07:00:56.412Z,15.39
2018-09-17T07:01:56.396Z,15.43
2018-09-17T07:02:56.436Z,15.50
2018-09-17T07:03:56.363Z,15.47
2018-09-17T07:04:56.357Z,15.50
2018-09-17T07:05:56.325Z,15.54
2018-09-17T07:06:56.309Z,15.59
2018-09-17T07:07:56.293Z,15.65
2018-09-17T07:08:56.282Z,15.75
2018-09-17T07:09:56.277Z,15.75
2018-09-17T07:10:56.245Z,15.84
2018-09-17T07:11:56.248Z,15.86
2018-09-17T07:12:56.215Z,15.92
2018-09-17T07:13:56.197Z,15.90
2018-09-17T07:14:56.181Z,15.97
2018-09-17T07:15:56.165Z,16.08
2018-09-17T07:16:56.149Z,16.23
2018-09-17T07:17:56.162Z,16.28
2018-09-17T07:18:56.125Z,16.33
2018-09-17T07:19:56.104Z,16.43
2018-09-17T07:20:56.102Z,16.43
2018-09-17T07:21:56.068Z,16.42
2018-09-17T07:22:56.052Z,16.43
2018-09-17T07:23:56.037Z,16.49
2018-09-17T07:24:56.020Z,16.50
2018-09-17T07:25:56.022Z,16.52
2018-09-17T07:26:55.990Z,16.63
2018-09-17T07:27:55.988Z,16.64
2018-09-17T07:28:55.959Z,16.67
2018-09-17T07:29:55.940Z,16.70
2018-09-17T07:30:55.926Z,16.78
2018-09-17T07:31:55.910Z,16.89
2018-09-17T07:32:55.907Z,16.88
2018-09-17T07:33:55.880Z,16.91
2018-09-17T07:34:55.860Z,16.98
2018-09-17T07:35:55.848Z,16.97
2018-09-17T07:36:55.843Z,17.11
2018-09-17T07:37:55.813Z,17.11
2018-09-17T07:38:55.801Z,17.07
2018-09-17T07:39:55.798Z,17.06
2018-09-17T07:40:55.768Z,17.18
2018-09-17T07:41:55.756Z,17.25
2018-09-17T07:42:55.740Z,17.15
2018-09-17T07:43:55.726Z,17.33
2018-09-17T07:44:55.731Z,17.31
2018-09-17T07:45:55.691Z,17.34
2018-09-17T07:46:55.674Z,17.40
2018-09-17T07:47:55.733Z,17.43
2018-09-17T07:48:55.646Z,17.49
2018-09-17T07:49:55.646Z,17.49
2018-09-17T07:50:55.613Z,17.54
2018-09-17T07:51:57.511Z,17.64
2018-09-17T07:52:55.621Z,17.71
2018-09-17T07:53:55.566Z,17.84
2018-09-17T07:54:55.591Z,17.87
2018-09-17T07:55:55.537Z,17.92
2018-09-17T07:56:55.517Z,17.86
2018-09-17T07:57:55.512Z,17.95
2018-09-17T07:58:55.519Z,18.08
2018-09-17T07:59:55.475Z,18.20
2018-09-17T08:00:55.475Z,18.18
2018-09-17T08:01:55.444Z,18.29
2018-09-17T08:02:55.443Z,18.36
2018-09-17T08:03:55.415Z,18.36
2018-09-17T08:04:55.397Z,18.45
2018-09-17T08:05:55.395Z,18.51
2018-09-17T08:06:55.368Z,18.52
2018-09-17T08:07:55.608Z,18.62
2018-09-17T08:08:55.341Z,18.75
2018-09-17T08:09:55.320Z,18.84
2018-09-17T08:10:55.322Z,18.80
2018-09-17T08:11:55.294Z,19.00
2018-09-17T08:12:55.300Z,19.10
2018-09-17T08:13:55.268Z,19.16
2018-09-17T08:14:55.253Z,19.11
2018-09-17T08:15:55.236Z,19.21
2018-09-17T08:16:55.237Z,19.31
2018-09-17T08:17:55.207Z,19.29
2018-09-17T08:18:55.207Z,19.44
2018-09-17T08:19:55.197Z,19.50
2018-09-17T08:20:55.166Z,19.65
2018-09-17T08:21:55.147Z,19.68
2018-09-17T08:22:55.135Z,19.63
2018-09-17T08:23:55.124Z,19.83
2018-09-17T08:24:55.123Z,19.86
2018-09-17T08:25:55.095Z,19.98
2018-09-17T08:26:55.081Z,19.92
2018-09-17T08:27:55.064Z,19.92
2018-09-17T08:28:55.053Z,19.99
2018-09-17T08:29:55.050Z,19.98
2018-09-17T08:30:55.024Z,20.01
2018-09-17T08:31:55.015Z,19.95
2018-09-17T08:32:54.991Z,19.99
2018-09-17T08:33:54.983Z,20.02
2018-09-17T08:34:54.989Z,20.18
2018-09-17T08:35:54.959Z,20.05
2018-09-17T08:36:54.942Z,20.11
2018-09-17T08:37:54.930Z,20.11
2018-09-17T08:38:54.915Z,20.14
2018-09-17T08:39:54.902Z,20.21
2018-09-17T08:40:54.902Z,20.31
2018-09-17T08:41:54.873Z,20.29
2018-09-17T08:42:54.857Z,20.28
2018-09-17T08:43:54.844Z,20.41
2018-09-17T08:44:54.831Z,20.48
2018-09-17T08:45:54.835Z,20.66
2018-09-17T08:46:54.805Z,20.95
2018-09-17T08:47:54.796Z,21.31
2018-09-17T08:48:54.782Z,21.54
2018-09-17T08:49:54.763Z,22.00
2018-09-17T08:50:54.764Z,22.15
2018-09-17T08:51:54.738Z,22.12
2018-09-17T08:52:54.773Z,22.51
2018-09-17T08:53:54.711Z,22.95
2018-09-17T08:54:54.694Z,23.53
2018-09-17T08:55:54.703Z,23.40
2018-09-17T08:56:54.672Z,23.80
2018-09-17T08:57:54.657Z,23.98
2018-09-17T08:58:54.646Z,24.13
2018-09-17T08:59:54.633Z,24.02
2018-09-17T09:00:54.620Z,24.10
2018-09-17T09:01:54.620Z,23.91
2018-09-17T09:02:54.596Z,23.73
2018-09-17T09:03:54.603Z,23.61
2018-09-17T09:04:54.586Z,23.91
2018-09-17T09:05:54.558Z,24.27
2018-09-17T09:06:54.557Z,24.37
2018-09-17T09:07:54.531Z,24.58
2018-09-17T09:08:54.515Z,24.88
2018-09-17T09:09:54.510Z,24.47
2018-09-17T09:10:54.490Z,24.30
2018-09-17T09:11:54.482Z,24.42
2018-09-17T09:12:54.484Z,24.47
2018-09-17T09:13:54.460Z,24.34
2018-09-17T09:14:54.448Z,24.47
2018-09-17T09:15:54.438Z,24.20
2018-09-17T09:16:54.423Z,24.35
2018-09-17T09:17:54.413Z,24.90
2018-09-17T09:18:54.418Z,25.42
2018-09-17T09:19:54.396Z,25.06
2018-09-17T09:20:54.379Z,25.27
2018-09-17T09:21:54.368Z,25.61
2018-09-17T09:22:54.377Z,25.61
2018-09-17T09:23:54.353Z,26.10
2018-09-17T09:24:54.348Z,26.37
2018-09-17T09:25:54.349Z,26.91
2018-09-17T09:26:54.324Z,27.46
2018-09-17T09:27:54.330Z,27.46
2018-09-17T09:28:54.308Z,27.85
2018-09-17T09:29:54.295Z,27.92
2018-09-17T09:30:54.306Z,27.72
2018-09-17T09:31:54.282Z,26.01
2018-09-17T09:32:54.289Z,25.67
2018-09-17T09:33:54.276Z,26.01
2018-09-17T09:34:54.256Z,26.20
2018-09-17T09:36:15.263Z,26.55
2018-09-17T09:36:54.259Z,26.88
2018-09-17T09:37:54.231Z,27.06
2018-09-17T09:38:54.247Z,27.29
2018-09-17T09:39:54.219Z,27.41
2018-09-17T09:40:54.235Z,27.59
2018-09-17T09:41:54.203Z,27.60
2018-09-17T09:42:54.197Z,27.59
2018-09-17T09:43:54.190Z,27.59
2018-09-17T09:44:54.183Z,27.09
2018-09-17T09:45:54.177Z,26.76
2018-09-17T09:46:54.191Z,27.29
2018-09-17T09:47:54.164Z,27.75
2018-09-17T09:48:54.155Z,28.25
2018-09-17T09:49:54.164Z,28.41
2018-09-17T09:50:54.145Z,28.54
2018-09-17T09:51:54.140Z,28.41
2018-09-17T09:52:54.149Z,27.36
2018-09-17T09:53:54.128Z,27.31
2018-09-17T09:54:54.135Z,27.39
2018-09-17T09:55:54.114Z,27.39
2018-09-17T09:56:54.108Z,27.74
2018-09-17T09:57:54.121Z,28.00
2018-09-17T09:58:54.098Z,27.90
2018-09-17T09:59:54.109Z,28.03
2018-09-17T10:00:54.095Z,28.00
2018-09-17T10:01:54.082Z,28.03
2018-09-17T10:02:54.077Z,28.19
2018-09-17T10:03:54.073Z,28.00
2018-09-17T10:04:54.088Z,27.87
2018-09-17T10:05:54.076Z,27.27
2018-09-17T10:06:54.056Z,27.57
2018-09-17T10:07:54.076Z,27.70
2018-09-17T10:08:54.051Z,27.28
2018-09-17T10:09:54.064Z,27.62
2018-09-17T10:10:54.038Z,28.04
2018-09-17T10:11:54.034Z,28.66
2018-09-17T10:12:54.038Z,28.67
2018-09-17T10:13:54.028Z,28.41
2018-09-17T10:14:54.065Z,28.58
2018-09-17T10:15:54.015Z,29.09
2018-09-17T10:16:54.012Z,28.98
2018-09-17T10:17:54.009Z,28.71
2018-09-17T10:18:54.002Z,28.89
2018-09-17T10:19:53.999Z,28.64
2018-09-17T10:20:54.009Z,29.11
2018-09-17T10:21:53.993Z,29.39
2018-09-17T10:22:54.006Z,29.63
2018-09-17T10:23:53.990Z,30.07
2018-09-17T10:24:53.983Z,29.92
2018-09-17T10:25:53.996Z,30.10
2018-09-17T10:26:53.996Z,29.73
2018-09-17T10:27:53.973Z,29.05
2018-09-17T10:28:53.971Z,29.11
2018-09-17T10:29:54.014Z,29.18
2018-09-17T10:30:53.964Z,29.53
2018-09-17T10:31:53.961Z,29.26
2018-09-17T10:32:53.971Z,29.26
2018-09-17T10:33:53.958Z,29.60
2018-09-17T10:34:53.951Z,29.94
2018-09-17T10:35:53.951Z,30.19
2018-09-17T10:36:53.948Z,30.57
2018-09-17T10:37:53.971Z,29.98
2018-09-17T10:38:53.938Z,29.23
2018-09-17T10:39:53.939Z,28.70
2018-09-17T10:40:53.936Z,27.85
2018-09-17T10:41:53.934Z,27.46
2018-09-17T10:42:53.949Z,27.18
2018-09-17T10:43:53.930Z,27.59
2018-09-17T10:44:53.928Z,27.69
2018-09-17T10:45:53.922Z,28.11
2018-09-17T10:46:53.962Z,28.64
2018-09-17T10:48:14.935Z,29.21
2018-09-17T10:48:53.915Z,29.76
2018-09-17T10:49:53.912Z,30.04
2018-09-17T10:50:53.909Z,30.19
2018-09-17T10:51:53.906Z,29.52
2018-09-17T10:52:53.919Z,28.59
2018-09-17T10:53:53.917Z,28.25
2018-09-17T10:54:53.902Z,28.39
2018-09-17T10:55:53.897Z,28.80
2018-09-17T10:56:53.893Z,28.88
2018-09-17T10:57:53.890Z,29.30
2018-09-17T10:58:53.906Z,29.67
2018-09-17T10:59:53.887Z,29.73
2018-09-17T11:00:53.883Z,30.02
2018-09-17T11:01:53.881Z,30.07
2018-09-17T11:02:53.881Z,29.43
2018-09-17T11:03:53.881Z,29.15
2018-09-17T11:04:53.895Z,29.37
2018-09-17T11:05:53.877Z,28.98
2018-09-17T11:06:53.872Z,28.52
2018-09-17T11:07:53.868Z,28.54
2018-09-17T11:08:53.884Z,28.46
2018-09-17T11:09:53.884Z,28.04
2018-09-17T11:10:53.862Z,28.37
2018-09-17T11:11:53.861Z,28.68
2018-09-17T11:12:53.858Z,28.71
2018-09-17T11:13:53.874Z,28.76
2018-09-17T11:14:53.855Z,28.22
2018-09-17T11:15:53.859Z,27.99
2018-09-17T11:16:53.852Z,27.96
2018-09-17T11:17:53.856Z,28.43
2018-09-17T11:18:53.856Z,29.00
2018-09-17T11:19:53.858Z,29.08
2018-09-17T11:20:53.855Z,28.92
2018-09-17T11:21:53.843Z,28.55
2018-09-17T11:22:53.849Z,28.74
2018-09-17T11:23:53.839Z,29.27
2018-09-17T11:24:53.856Z,29.57
2018-09-17T11:25:53.833Z,29.79
2018-09-17T11:26:53.840Z,29.94
2018-09-17T11:27:53.833Z,30.23
2018-09-17T11:28:53.827Z,30.19
2018-09-17T11:29:53.840Z,30.54
2018-09-17T11:30:53.827Z,30.32
2018-09-17T11:31:53.833Z,30.11
2018-09-17T11:32:53.824Z,30.26
2018-09-17T11:33:53.823Z,30.07
2018-09-17T11:34:53.837Z,29.82
2018-09-17T11:35:53.820Z,29.85
2018-09-17T11:36:53.824Z,29.74
2018-09-17T11:37:53.817Z,29.23
2018-09-17T11:38:53.830Z,29.14
2018-09-17T11:39:53.833Z,29.24
2018-09-17T11:40:53.841Z,29.49
2018-09-17T11:41:53.813Z,30.02
2018-09-17T11:42:53.811Z,30.11
2018-09-17T11:43:53.811Z,30.38
2018-09-17T11:44:53.811Z,29.89
2018-09-17T11:45:53.821Z,30.17
2018-09-17T11:46:53.814Z,29.70
2018-09-17T11:47:53.801Z,29.51
2018-09-17T11:48:53.808Z,29.92
2018-09-17T11:49:53.801Z,30.07
2018-09-17T11:50:53.817Z,29.83
2018-09-17T11:51:53.798Z,29.34
2018-09-17T11:52:53.798Z,29.11
2018-09-17T11:53:53.837Z,28.98
2018-09-17T11:54:53.792Z,29.08
2018-09-17T11:55:53.815Z,29.09
2018-09-17T11:56:53.796Z,28.49
2018-09-17T11:57:53.792Z,28.34
2018-09-17T11:58:53.789Z,28.39
2018-09-17T11:59:53.792Z,28.89
2018-09-17T12:00:53.785Z,29.02
2018-09-17T12:01:53.843Z,29.19
2018-09-17T12:02:53.788Z,29.36
2018-09-17T12:03:53.786Z,29.70
2018-09-17T12:04:53.779Z,30.11
2018-09-17T12:05:53.777Z,30.35
2018-09-17T12:06:53.811Z,30.55
2018-09-17T12:07:53.797Z,30.79
2018-09-17T12:08:53.773Z,30.45
2018-09-17T12:09:53.770Z,30.57
2018-09-17T12:10:53.775Z,30.55
2018-09-17T12:11:53.789Z,30.45
2018-09-17T12:12:53.770Z,30.23
2018-09-17T12:13:53.767Z,30.08
2018-09-17T12:14:53.767Z,30.20
2018-09-17T12:15:53.767Z,30.04
2018-09-17T12:16:53.780Z,29.48
2018-09-17T12:17:53.789Z,29.19
2018-09-17T12:18:53.774Z,29.36
2018-09-17T12:19:53.760Z,29.46
2018-09-17T12:20:53.760Z,29.45
2018-09-17T12:21:53.773Z,29.45
2018-09-17T12:22:53.771Z,29.30
2018-09-17T12:23:53.788Z,29.41
2018-09-17T12:24:53.751Z,29.34
2018-09-17T12:25:53.773Z,29.23
2018-09-17T12:26:53.745Z,29.19
2018-09-17T12:27:53.767Z,29.42
2018-09-17T12:28:53.764Z,29.76
2018-09-17T12:29:53.741Z,29.64
2018-09-17T12:30:53.761Z,29.80
2018-09-17T12:31:53.737Z,29.52
2018-09-17T12:32:53.761Z,29.48
2018-09-17T12:33:53.782Z,29.60
2018-09-17T12:34:53.748Z,29.51
2018-09-17T12:35:53.731Z,29.48
2018-09-17T12:36:53.731Z,29.23
2018-09-17T12:37:53.748Z,28.86
2018-09-17T12:38:53.722Z,28.71
2018-09-17T12:39:53.720Z,28.52
2018-09-17T12:40:53.724Z,28.22
2018-09-17T12:41:53.714Z,28.22
2018-09-17T12:42:53.714Z,28.19
2018-09-17T12:43:53.723Z,28.36
2018-09-17T12:45:14.717Z,28.04
2018-09-17T12:45:53.736Z,28.04
2018-09-17T12:46:53.700Z,28.19
2018-09-17T12:47:53.695Z,28.22
2018-09-17T12:48:53.693Z,28.46
2018-09-17T12:49:53.699Z,28.37
2018-09-17T12:50:53.701Z,28.67
2018-09-17T12:51:53.682Z,28.92
2018-09-17T12:52:53.676Z,29.14